Time;durP1;ratioP1;P1;durP2;ratioP2;P2;SDS_P1;SDS_P2;PMS_P1;PMS_P2;Temp;Humidity;BMP_temperature;BMP_pressure;BME280_temperature;BME280_humidity;BME280_pressure;Samples;Min_cycle;Max_cycle;Signal;HPM_P1;HPM_P2
2023/03/06 00:00:42;;;;;;;9.02;5.55;;;;;;;4.04;81.10;99598.63;4999677;28;20042;-93
2023/03/06 00:03:21;;;;;;;8.23;5.55;;;;;;;4.19;81.62;99633.03;5008541;28;20050;-92
2023/03/06 00:06:07;;;;;;;9.00;5.90;;;;;;;4.14;81.67;99620.97;5003679;28;20057;-94
2023/03/06 00:08:50;;;;;;;10.48;6.32;;;;;;;3.63;82.62;99565.91;5000569;28;20090;-92
2023/03/06 00:11:38;;;;;;;10.65;6.38;;;;;;;3.55;82.32;99546.97;4999460;28;20137;-93
2023/03/06 00:14:48;;;;;;;12.68;6.43;;;;;;;4.11;82.32;99644.66;5000923;28;20061;-92
2023/03/06 00:17:36;;;;;;;12.50;6.13;;;;;;;3.85;83.13;99609.69;5008515;28;20042;-92
2023/03/06 00:20:19;;;;;;;9.30;5.93;;;;;;;3.86;83.27;99594.81;5000622;28;20045;-92
2023/03/06 00:23:06;;;;;;;11.55;6.72;;;;;;;3.90;83.26;99612.16;4999604;28;20038;-93
2023/03/06 00:26:07;;;;;;;13.10;6.90;;;;;;;4.08;83.53;99635.16;4998898;28;20034;-94
2023/03/06 00:28:55;;;;;;;10.15;6.30;;;;;;;4.03;82.99;99636.19;5002724;28;20038;-93
2023/03/06 00:32:01;;;;;;;10.88;6.32;;;;;;;3.68;83.81;99575.31;4975474;28;20102;-93
2023/03/06 00:34:42;;;;;;;11.32;6.07;;;;;;;3.81;83.82;99591.50;4983264;28;20054;-92
2023/03/06 00:37:25;;;;;;;12.23;5.95;;;;;;;3.44;83.14;99529.00;5009372;28;20051;-91
2023/03/06 00:39:57;;;;;;;10.10;6.05;;;;;;;4.06;83.80;99634.34;4980980;28;20049;-93
2023/03/06 00:42:53;;;;;;;7.97;5.40;;;;;;;3.77;83.67;99566.34;4991135;28;20050;-92
2023/03/06 00:45:36;;;;;;;8.70;5.72;;;;;;;4.09;83.75;99621.13;4992623;28;20062;-93
2023/03/06 00:48:40;;;;;;;9.23;5.93;;;;;;;3.83;84.32;99590.53;5003373;28;20045;-92
2023/03/06 00:51:20;;;;;;;8.73;5.68;;;;;;;3.80;84.39;99590.63;5000052;28;20039;-91
2023/03/06 00:53:50;;;;;;;10.85;5.60;;;;;;;3.65;85.38;99577.19;4985796;28;20090;-93
2023/03/06 00:57:08;;;;;;;10.18;6.00;;;;;;;3.94;85.12;99613.75;4999239;28;20094;-93
2023/03/06 00:59:49;;;;;;;8.00;5.32;;;;;;;3.96;85.32;99598.84;4988018;28;20038;-93
2023/03/06 01:02:23;;;;;;;9.18;5.47;;;;;;;3.96;85.12;99579.66;5000828;28;20133;-92
2023/03/06 01:05:11;;;;;;;8.90;5.85;;;;;;;3.98;84.64;99570.84;4995174;28;20046;-91
2023/03/06 01:07:42;;;;;;;11.32;5.93;;;;;;;4.02;84.28;99569.00;4999280;28;20062;-92
2023/03/06 01:10:12;;;;;;;8.23;5.78;;;;;;;4.18;84.04;99573.66;4977221;28;20467;-92
2023/03/06 01:12:45;;;;;;;8.75;5.35;;;;;;;4.25;83.71;99578.72;4998629;28;20050;-93
2023/03/06 01:15:57;;;;;;;9.15;5.53;;;;;;;4.27;83.76;99579.47;4991831;28;20038;-92
2023/03/06 01:18:29;;;;;;;8.68;5.32;;;;;;;4.14;83.64;99552.84;4986083;28;20047;-93
2023/03/06 01:21:20;;;;;;;8.60;5.32;;;;;;;4.19;83.75;99558.78;4999865;28;20147;-93
2023/03/06 01:24:04;;;;;;;11.20;5.40;;;;;;;4.22;83.87;99556.06;4980549;28;20113;-91
2023/03/06 01:26:42;;;;;;;9.95;5.72;;;;;;;3.90;83.95;99494.31;4987093;28;20066;-92
2023/03/06 01:29:15;;;;;;;9.95;5.43;;;;;;;4.14;83.28;99537.13;4977740;28;20047;-91
2023/03/06 01:32:08;;;;;;;13.02;6.05;;;;;;;4.21;84.06;99556.97;5005521;28;20053;-93
2023/03/06 01:34:44;;;;;;;9.85;6.30;;;;;;;4.14;83.99;99553.69;5011879;28;20387;-92
2023/03/06 01:37:14;;;;;;;9.50;5.30;;;;;;;3.92;85.21;99517.81;5007349;28;20046;-94
2023/03/06 01:39:45;;;;;;;8.60;5.60;;;;;;;4.13;85.94;99546.75;5006609;28;20070;-93
2023/03/06 01:42:30;;;;;;;8.75;5.53;;;;;;;3.86;85.64;99503.16;4994195;28;20468;-93
2023/03/06 01:45:27;;;;;;;11.05;5.93;;;;;;;3.80;86.26;99512.06;5007696;28;20118;-92
2023/03/06 01:48:13;;;;;;;8.88;5.25;;;;;;;3.97;87.66;99535.06;5001455;28;20142;-94
2023/03/06 01:50:54;;;;;;;10.18;6.00;;;;;;;3.29;88.45;99441.38;4993334;28;20075;-93
2023/03/06 01:53:32;;;;;;;8.50;5.70;;;;;;;3.37;89.78;99457.66;5008287;28;20066;-92
2023/03/06 01:56:31;;;;;;;9.27;6.03;;;;;;;3.49;90.01;99477.34;5010224;28;20041;-93
2023/03/06 01:59:02;;;;;;;8.85;5.75;;;;;;;3.82;90.86;99533.84;4996442;28;20118;-92
2023/03/06 02:02:00;;;;;;;9.95;5.68;;;;;;;3.89;90.42;99529.25;4975587;28;20053;-92
2023/03/06 02:04:44;;;;;;;9.43;6.07;;;;;;;3.86;89.72;99526.72;5011515;28;20045;-92
2023/03/06 02:07:33;;;;;;;9.02;5.90;;;;;;;3.60;90.80;99495.34;4990429;28;20047;-92
2023/03/06 02:10:06;;;;;;;9.35;5.78;;;;;;;3.36;92.41;99442.88;4962385;28;20071;-94
2023/03/06 02:13:02;;;;;;;11.25;6.32;;;;;;;3.61;92.41;99468.25;4982856;28;20122;-92
2023/03/06 02:15:44;;;;;;;9.18;5.70;;;;;;;3.71;91.81;99475.72;4979310;28;20043;-93
2023/03/06 02:18:14;;;;;;;9.70;5.65;;;;;;;3.58;93.58;99439.56;4987770;28;20102;-92
2023/03/06 02:20:52;;;;;;;9.32;6.30;;;;;;;3.39;94.51;99407.91;4960547;28;20113;-93
2023/03/06 02:24:14;;;;;;;12.77;7.22;;;;;;;3.81;96.94;99498.06;4970159;28;20043;-92
2023/03/06 02:26:52;;;;;;;8.40;6.18;;;;;;;3.52;97.54;99464.16;4931010;29;20060;-91
2023/03/06 02:29:24;;;;;;;11.95;6.28;;;;;;;3.45;100.00;99450.44;4924397;29;20058;-92
2023/03/06 02:31:55;;;;;;;10.85;6.35;;;;;;;3.81;99.57;99502.44;4945486;28;20082;-92
2023/03/06 02:34:39;;;;;;;9.20;6.00;;;;;;;3.87;100.00;99502.25;4979895;28;20043;-93
2023/03/06 02:37:12;;;;;;;12.18;6.45;;;;;;;3.68;100.00;99462.75;4967783;28;20047;-93
2023/03/06 02:39:51;;;;;;;10.40;6.70;;;;;;;3.69;100.00;99451.38;4961938;28;20043;-92
2023/03/06 02:42:27;;;;;;;11.88;6.47;;;;;;;3.78;100.00;99466.75;4964943;28;20492;-92
2023/03/06 02:45:09;;;;;;;11.20;6.15;;;;;;;3.38;100.00;99401.81;4964808;28;20057;-92
2023/03/06 02:47:55;;;;;;;10.13;6.15;;;;;;;3.74;100.00;99457.31;4941662;28;20051;-93
2023/03/06 02:50:26;;;;;;;9.98;6.55;;;;;;;3.94;100.00;99480.16;4953398;29;20047;-93
2023/03/06 02:52:56;;;;;;;10.27;6.47;;;;;;;3.94;100.00;99479.31;4967056;28;20530;-93
2023/03/06 02:55:25;;;;;;;11.07;6.32;;;;;;;3.33;100.00;99385.41;4962907;28;20135;-91
2023/03/06 02:57:54;;;;;;;9.93;5.95;;;;;;;3.58;100.00;99432.56;4974949;28;20035;-93
2023/03/06 03:00:30;;;;;;;10.13;5.90;;;;;;;3.77;100.00;99478.16;4967987;28;20031;-92
2023/03/06 03:02:59;;;;;;;9.43;6.25;;;;;;;3.57;100.00;99432.59;4986233;28;20042;-91
2023/03/06 03:05:29;;;;;;;10.90;6.00;;;;;;;3.77;100.00;99459.84;4979740;28;20051;-93
2023/03/06 03:08:00;;;;;;;9.88;5.80;;;;;;;3.74;100.00;99449.47;4978058;28;20042;-93
2023/03/06 03:10:31;;;;;;;10.20;6.13;;;;;;;3.84;99.79;99470.94;4988638;28;20112;-93
2023/03/06 03:13:19;;;;;;;9.43;5.95;;;;;;;3.75;100.00;99456.41;4974534;28;20043;-93
2023/03/06 03:16:12;;;;;;;10.10;6.35;;;;;;;3.23;100.00;99364.84;4986666;28;20030;-94
2023/03/06 03:21:23;;;;;;;9.40;6.32;;;;;;;3.10;100.00;99357.41;4993595;23;20038;-92
2023/03/06 03:24:02;;;;;;;10.18;6.38;;;;;;;3.70;100.00;99458.31;4982231;28;20050;-92
2023/03/06 03:26:52;;;;;;;13.13;6.10;;;;;;;3.10;100.00;99372.25;5091000;23;20093;-93
2023/03/06 03:29:25;;;;;;;11.05;6.68;;;;;;;3.65;100.00;99468.06;5019889;28;20038;-94
2023/03/06 03:32:02;;;;;;;9.70;6.32;;;;;;;3.34;100.00;99422.91;5006752;28;20057;-94
2023/03/06 03:34:58;;;;;;;12.60;6.40;;;;;;;3.66;100.00;99467.16;5014545;28;20026;-96
2023/03/06 03:37:31;;;;;;;11.48;6.25;;;;;;;3.74;100.00;99470.41;4988771;28;20062;-94
2023/03/06 03:40:29;;;;;;;9.70;6.45;;;;;;;3.15;100.00;99363.31;4996850;28;20399;-94
2023/03/06 03:43:04;;;;;;;9.68;6.55;;;;;;;3.83;100.00;99469.22;5010555;28;20046;-94
2023/03/06 03:46:08;;;;;;;12.20;5.70;;;;;;;3.84;100.00;99460.47;5016788;28;20049;-93
2023/03/06 03:48:49;;;;;;;10.77;7.03;;;;;;;3.65;100.00;99430.56;5006856;28;20026;-92
2023/03/06 03:51:19;;;;;;;14.45;6.20;;;;;;;3.83;100.00;99456.13;4992011;28;20069;-95
2023/03/06 03:54:05;;;;;;;11.55;6.32;;;;;;;3.29;100.00;99362.88;5009691;28;20069;-93
2023/03/06 03:56:52;;;;;;;9.77;6.55;;;;;;;3.68;100.00;99452.28;4992097;28;20054;-94
2023/03/06 03:59:34;;;;;;;9.88;6.32;;;;;;;3.49;100.00;99428.47;4985109;28;20050;-94
2023/03/06 04:02:31;;;;;;;11.13;6.38;;;;;;;3.67;100.00;99452.31;5001927;28;20107;-93
2023/03/06 04:05:02;;;;;;;11.50;6.43;;;;;;;3.47;100.00;99405.88;5009351;28;20491;-92
2023/03/06 04:07:35;;;;;;;10.18;6.57;;;;;;;3.35;100.00;99382.75;5008646;28;20062;-94
2023/03/06 04:10:32;;;;;;;;;;;;;;;;;;;;;
2023/03/06 04:13:14;;;;;;;11.77;6.03;;;;;;;3.16;100.00;99370.25;5002982;28;20049;-95
2023/03/06 04:15:58;;;;;;;10.35;6.22;;;;;;;2.89;100.00;99336.31;5005448;28;20056;-94
2023/03/06 04:18:54;;;;;;;10.38;6.30;;;;;;;2.77;100.00;99324.53;5006446;28;20038;-94
2023/03/06 04:21:40;;;;;;;12.18;7.05;;;;;;;2.70;100.00;99315.16;4979969;28;20098;-94
2023/03/06 04:24:24;;;;;;;11.02;6.40;;;;;;;3.45;100.00;99412.94;4993364;28;20038;-93
2023/03/06 04:27:16;;;;;;;13.48;6.78;;;;;;;2.96;100.00;99320.41;5011240;28;20038;-92
2023/03/06 04:30:00;;;;;;;13.77;6.93;;;;;;;2.98;100.00;99329.06;5015174;28;20050;-94
2023/03/06 04:32:33;;;;;;;12.55;6.70;;;;;;;3.22;100.00;99378.81;5021964;28;20033;-93
2023/03/06 04:35:28;;;;;;;14.35;7.45;;;;;;;3.06;100.00;99365.41;5013922;28;20062;-93
2023/03/06 04:38:12;;;;;;;10.98;6.78;;;;;;;3.02;100.00;99359.41;5015389;28;20057;-93
2023/03/06 04:40:44;;;;;;;11.82;7.13;;;;;;;3.24;100.00;99390.97;5016154;28;20036;-94
2023/03/06 04:43:15;;;;;;;12.25;7.30;;;;;;;2.95;100.00;99334.38;5019432;28;20057;-93
2023/03/06 04:45:46;;;;;;;10.93;7.00;;;;;;;3.17;100.00;99366.75;5020060;28;20053;-93
2023/03/06 04:48:19;;;;;;;12.50;7.07;;;;;;;3.08;100.00;99354.00;5013241;28;20042;-93
2023/03/06 04:50:52;;;;;;;11.20;7.47;;;;;;;3.42;100.00;99406.03;4986582;28;20034;-93
2023/03/06 04:53:27;;;;;;;13.18;7.93;;;;;;;3.13;100.00;99357.31;5004320;28;20073;-93
2023/03/06 04:56:11;;;;;;;11.95;7.90;;;;;;;3.32;100.00;99395.91;4999953;28;20480;-93
2023/03/06 04:58:46;;;;;;;14.48;7.40;;;;;;;3.04;100.00;99343.66;5001558;28;20043;-92
2023/03/06 05:01:25;;;;;;;12.73;7.45;;;;;;;3.35;100.00;99395.81;4992126;28;20073;-94
2023/03/06 05:03:55;;;;;;;14.82;8.73;;;;;;;2.95;100.00;99318.69;5012502;28;20038;-93
2023/03/06 05:06:34;;;;;;;12.02;7.68;;;;;;;3.08;100.00;99325.22;5014526;28;20030;-91
2023/03/06 05:09:18;;;;;;;14.75;8.30;;;;;;;3.51;100.00;99389.16;4990098;28;20042;-91
2023/03/06 05:11:57;;;;;;;13.18;8.23;;;;;;;3.14;100.00;99322.41;5012569;28;20101;-92
2023/03/06 05:14:31;;;;;;;14.75;8.80;;;;;;;2.91;100.00;99290.94;5012265;28;20046;-92
2023/03/06 05:17:07;;;;;;;20.13;8.05;;;;;;;3.48;100.00;99392.72;4993171;28;20034;-93
2023/03/06 05:19:48;;;;;;;16.48;9.43;;;;;;;3.44;100.00;99383.31;5045302;23;20066;-94
2023/03/06 05:22:51;;;;;;;13.77;8.00;;;;;;;3.45;100.00;99389.38;4994637;28;20038;-95
2023/03/06 05:25:49;;;;;;;14.48;8.30;;;;;;;2.88;100.00;99282.31;4985833;28;20066;-94
2023/03/06 05:28:43;;;;;;;12.52;7.93;;;;;;;3.16;100.00;99330.16;4986113;28;20097;-94
2023/03/06 05:31:25;;;;;;;12.70;8.43;;;;;;;3.06;100.00;99313.94;4973393;28;20046;-95
2023/03/06 05:34:17;;;;;;;13.25;8.27;;;;;;;3.38;100.00;99361.72;4986947;28;20046;-93
2023/03/06 05:36:56;;;;;;;15.93;8.60;;;;;;;3.49;100.00;99385.75;4980240;28;20082;-93
2023/03/06 05:39:48;;;;;;;14.48;8.40;;;;;;;3.45;100.00;99378.91;4993866;28;20062;-94
2023/03/06 05:42:24;;;;;;;12.68;7.50;;;;;;;3.23;100.00;99352.63;4990448;28;20126;-92
2023/03/06 05:45:16;;;;;;;15.25;7.78;;;;;;;3.22;100.00;99348.28;4995307;28;20055;-94
2023/03/06 05:47:49;;;;;;;14.85;7.85;;;;;;;3.41;100.00;99387.78;5204843;23;20084;-94
2023/03/06 05:50:35;;;;;;;14.85;8.07;;;;;;;3.02;100.00;99319.31;5007429;28;20039;-92
2023/03/06 05:53:11;;;;;;;13.25;7.80;;;;;;;3.17;100.00;99337.97;5009920;28;20026;-93
2023/03/06 05:55:42;;;;;;;12.48;7.80;;;;;;;3.03;100.00;99316.66;5007212;28;20042;-95
2023/03/06 05:58:28;;;;;;;10.82;7.22;;;;;;;3.26;100.00;99360.38;5003560;28;20062;-93
2023/03/06 06:01:30;;;;;;;17.38;8.68;;;;;;;3.17;100.00;99345.81;5013160;28;20071;-95
2023/03/06 06:04:00;;;;;;;14.10;8.43;;;;;;;3.21;100.00;99361.41;5015166;28;20047;-94
2023/03/06 06:07:17;;;;;;;13.57;7.80;;;;;;;3.29;100.00;99375.97;5003252;28;20049;-93
2023/03/06 06:10:02;;;;;;;16.13;9.32;;;;;;;3.30;100.00;99379.44;4991772;28;20041;-94
2023/03/06 06:12:33;;;;;;;13.82;8.82;;;;;;;3.11;100.00;99343.44;5014700;28;20046;-92
2023/03/06 06:15:09;;;;;;;17.23;8.60;;;;;;;3.05;100.00;99335.78;5012354;28;20065;-93
2023/03/06 06:17:54;;;;;;;14.15;8.38;;;;;;;3.02;100.00;99333.25;4992072;28;20046;-94
2023/03/06 06:20:24;;;;;;;14.07;8.40;;;;;;;3.30;100.00;99376.81;5104865;23;20048;-93
2023/03/06 06:23:17;;;;;;;16.52;8.98;;;;;;;3.21;100.00;99354.44;4965819;28;20051;-92
2023/03/06 06:25:46;;;;;;;15.63;8.23;;;;;;;3.31;100.00;99370.66;4971331;28;20035;-94
2023/03/06 06:36:49;;;;;;;17.23;8.52;;;;;;;2.78;100.00;99272.19;5513430;23;20056;-94
2023/03/06 06:39:43;;;;;;;15.93;9.75;;;;;;;3.05;100.00;99316.63;5011327;28;20114;-94
2023/03/06 06:42:20;;;;;;;15.57;8.75;;;;;;;3.46;100.00;99385.88;5010941;28;20102;-93
2023/03/06 06:45:27;;;;;;;15.50;8.77;;;;;;;3.46;100.00;99385.88;5010796;28;20077;-94
2023/03/06 06:48:21;;;;;;;16.08;9.02;;;;;;;3.48;100.00;99384.03;4999017;28;20046;-93
2023/03/06 06:52:16;;;;;;;15.20;8.27;;;;;;;3.51;100.00;99370.84;5003702;28;20069;-94
2023/03/06 06:55:33;;;;;;;14.68;8.40;;;;;;;3.34;100.00;99339.16;5008131;28;20052;-93
2023/03/06 07:01:21;;;;;;;17.73;8.50;;;;;;;3.22;100.00;99321.28;5528811;23;20057;-92
2023/03/06 07:04:17;;;;;;;18.23;9.38;;;;;;;3.36;100.00;99347.81;5030483;28;20035;-94
2023/03/06 07:06:48;;;;;;;18.20;9.75;;;;;;;3.18;100.00;99329.22;5034180;28;20030;-94
2023/03/06 07:09:55;;;;;;;16.25;9.48;;;;;;;3.30;100.00;99351.53;5028554;28;20054;-95
2023/03/06 07:12:33;;;;;;;17.65;9.82;;;;;;;3.31;100.00;99347.97;5020194;28;20042;-94
2023/03/06 07:15:38;;;;;;;17.27;10.05;;;;;;;3.18;100.00;99320.50;5025785;28;20061;-93
2023/03/06 07:18:45;;;;;;;18.85;10.80;;;;;;;3.56;100.00;99389.88;5017855;28;20050;-92
2023/03/06 07:21:33;;;;;;;20.33;10.55;;;;;;;3.61;100.00;99384.47;5022844;28;20061;-92
2023/03/06 07:24:40;;;;;;;21.27;10.45;;;;;;;3.32;100.00;99328.75;5024721;28;20379;-94
2023/03/06 07:27:54;;;;;;;22.38;9.77;;;;;;;3.69;100.00;99385.91;5004586;28;20098;-92
2023/03/06 07:30:44;;;;;;;20.27;10.13;;;;;;;3.53;100.00;99358.56;5023152;28;20410;-93
2023/03/06 07:33:38;;;;;;;18.23;10.30;;;;;;;3.85;100.00;99383.59;5023230;28;20049;-93
2023/03/06 07:36:15;;;;;;;19.63;10.65;;;;;;;4.00;100.00;99390.06;5024406;28;20231;-94
2023/03/06 07:39:03;;;;;;;16.05;9.88;;;;;;;4.06;100.00;99382.84;5024255;28;20072;-94
2023/03/06 07:41:52;;;;;;;16.85;10.40;;;;;;;4.07;100.00;99366.22;5031616;28;20055;-95
2023/03/06 07:44:43;;;;;;;17.75;10.52;;;;;;;4.32;100.00;99384.47;5026648;28;20081;-96
2023/03/06 07:55:24;;;;;;;18.67;10.57;;;;;;;4.33;100.00;99364.38;5029555;28;20064;-95
2023/03/06 07:57:59;;;;;;;22.55;10.52;;;;;;;4.48;100.00;99385.59;5031201;28;20068;-93
2023/03/06 08:00:43;;;;;;;19.75;11.52;;;;;;;4.20;100.00;99325.53;5017870;28;20072;-95
2023/03/06 08:03:20;;;;;;;16.98;10.90;;;;;;;4.41;100.00;99370.16;5015280;28;20074;-95
2023/03/06 08:06:03;;;;;;;19.40;10.38;;;;;;;3.94;100.00;99304.69;5019585;28;20113;-94
2023/03/06 08:08:41;;;;;;;;;;;;;;;4.47;100.00;99388.28;5020944;28;20038;-94
2023/03/06 08:11:27;;;;;;;17.20;10.73;;;;;;;4.49;100.00;99408.28;5021738;28;19917;-94
2023/03/06 08:14:08;;;;;;;18.30;10.70;;;;;;;4.19;100.00;99344.78;5020000;28;20097;-94
2023/03/06 08:17:00;;;;;;;18.25;11.35;;;;;;;4.32;100.00;99358.28;5019777;28;20037;-93
2023/03/06 08:19:46;;;;;;;16.83;9.82;;;;;;;4.69;100.00;99398.81;5015744;28;20077;-94
2023/03/06 08:22:38;;;;;;;18.35;10.85;;;;;;;4.71;100.00;99394.38;5209562;23;20164;-94
2023/03/06 08:25:24;;;;;;;19.05;11.48;;;;;;;4.31;100.00;99322.50;4984071;28;20067;-92
2023/03/06 09:27:32;;;;;;;20.20;12.32;;;;;;;4.15;100.00;99365.91;5002418;28;20164;-95
2023/03/06 09:30:52;;;;;;;21.23;12.25;;;;;;;4.39;100.00;99391.22;5003260;28;20053;-94
2023/03/06 09:33:42;;;;;;;22.30;12.55;;;;;;;4.77;100.00;99429.06;4981772;28;20034;-95
2023/03/06 09:36:36;;;;;;;;;;;;;;;4.90;100.00;99434.69;4991139;28;20188;-93
2023/03/06 09:39:38;;;;;;;20.33;11.80;;;;;;;4.69;99.56;99391.81;4992499;28;19918;-93
2023/03/06 09:42:49;;;;;;;20.30;11.30;;;;;;;4.82;98.97;99426.28;5002770;28;20076;-93
2023/03/06 09:45:25;;;;;;;19.65;11.88;;;;;;;4.31;100.00;99377.53;5002398;28;20058;-93
2023/03/06 09:48:58;;;;;;;18.10;11.75;;;;;;;4.43;100.00;99429.47;4992868;28;20077;-94
2023/03/06 09:52:04;;;;;;;18.27;11.07;;;;;;;3.87;100.00;99337.28;4990134;28;20118;-93
2023/03/06 09:55:27;;;;;;;18.27;11.82;;;;;;;4.63;100.00;99430.50;5008370;28;20049;-94
2023/03/06 09:58:23;;;;;;;17.20;11.35;;;;;;;4.70;97.65;99442.47;5014180;28;20166;-94
2023/03/06 10:01:35;;;;;;;18.80;10.75;;;;;;;4.44;95.66;99386.63;5010339;28;20045;-94
2023/03/06 10:04:35;;;;;;;16.63;10.98;;;;;;;4.16;95.82;99323.06;5008914;28;20038;-95
2023/03/06 10:07:29;;;;;;;18.38;11.45;;;;;;;4.60;95.53;99368.53;5016455;28;20036;-94
2023/03/06 10:10:29;;;;;;;16.48;9.88;;;;;;;4.54;94.97;99346.06;4999262;28;20057;-95
2023/03/06 10:13:47;;;;;;;18.08;11.25;;;;;;;4.75;94.24;99380.19;4997775;28;20058;-94
2023/03/06 10:16:33;;;;;;;19.50;11.55;;;;;;;4.77;97.98;99402.84;4988256;28;20102;-93
2023/03/06 10:19:14;;;;;;;19.92;11.60;;;;;;;4.52;100.00;99395.06;5002910;28;20110;-91
2023/03/06 10:22:19;;;;;;;20.25;12.00;;;;;;;4.66;100.00;99438.25;4992788;28;20048;-91
2023/03/06 10:25:20;;;;;;;21.85;12.43;;;;;;;4.80;100.00;99428.09;4995280;28;20077;-93
2023/03/06 10:28:20;;;;;;;21.25;11.77;;;;;;;4.84;100.00;99387.72;4990973;28;20042;-92
2023/03/06 10:31:13;;;;;;;18.00;11.68;;;;;;;5.64;100.00;99423.78;4994501;28;20170;-94
2023/03/06 10:34:45;;;;;;;19.13;12.30;;;;;;;5.96;96.50;99425.03;5003752;28;20035;-92
2023/03/06 10:37:33;;;;;;;20.38;11.93;;;;;;;5.46;92.38;99342.28;5010423;28;20061;-93
2023/03/06 10:40:23;;;;;;;20.90;12.95;;;;;;;5.86;88.97;99423.69;4994998;28;20125;-92
2023/03/06 10:43:09;;;;;;;21.90;12.65;;;;;;;5.87;90.03;99412.25;4973932;28;20046;-93
2023/03/06 10:46:08;;;;;;;20.17;12.77;;;;;;;6.00;90.46;99415.22;5013848;28;20086;-94
2023/03/06 10:52:37;;;;;;;;;;;;;;;;;;;;;
2023/03/06 10:55:37;;;;;;;19.80;12.35;;;;;;;5.94;84.65;99410.25;5003933;28;20057;-94
2023/03/06 11:02:30;;;;;;;19.55;11.95;;;;;;;5.74;79.78;99303.38;4992312;28;20049;-94
2023/03/06 11:05:21;;;;;;;20.27;12.90;;;;;;;6.01;78.36;99296.06;4989215;28;20045;-91
2023/03/06 11:08:30;;;;;;;16.98;10.98;;;;;;;6.51;75.04;99361.22;4994845;28;20057;-92
2023/03/06 11:11:27;;;;;;;20.38;12.65;;;;;;;7.36;74.34;99396.56;4990787;28;20098;-94
2023/03/06 11:14:43;;;;;;;17.63;11.90;;;;;;;7.21;69.50;99292.00;5011092;28;20042;-93
2023/03/06 11:17:32;;;;;;;19.20;11.85;;;;;;;7.52;68.77;99321.13;4991532;28;20039;-93
2023/03/06 11:20:44;;;;;;;16.60;11.60;;;;;;;7.50;65.74;99345.81;4999235;28;20050;-93
2023/03/06 11:24:09;;;;;;;19.13;11.60;;;;;;;7.61;66.89;99394.41;4904990;29;20097;-93
2023/03/06 11:27:35;;;;;;;;;;;;;;;;;;;;;
2023/03/06 11:30:42;;;;;;;16.23;10.63;;;;;;;6.55;67.78;99310.19;4979578;28;20051;-92
2023/03/06 11:33:51;;;;;;;14.85;10.60;;;;;;;6.83;68.51;99393.91;4987865;28;20042;-92
2023/03/06 11:37:15;;;;;;;17.42;10.88;;;;;;;6.32;70.27;99350.69;4975835;28;20065;-93
2023/03/06 11:40:34;;;;;;;21.45;12.05;;;;;;;6.18;70.76;99346.06;4938278;29;20059;-93
2023/03/06 11:47:49;;;;;;;17.20;10.95;;;;;;;6.86;70.05;99375.34;5013014;28;20061;-93
2023/03/06 12:01:12;;;;;;;12.63;8.30;;;;;;;6.78;58.43;99359.91;5016453;28;20049;-96
2023/03/06 12:04:25;;;;;;;12.90;8.25;;;;;;;6.74;59.31;99347.84;5005040;28;20043;-93
2023/03/06 12:07:52;;;;;;;12.90;8.27;;;;;;;6.76;59.56;99356.53;5010104;28;20023;-93
2023/03/06 12:10:45;;;;;;;12.93;8.55;;;;;;;6.63;59.42;99318.53;4997954;28;20023;-95
2023/03/06 12:14:00;;;;;;;12.75;8.82;;;;;;;6.52;58.74;99286.66;4989665;28;20030;-93
2023/03/06 12:17:23;;;;;;;;;;;;;;;;;;;;;
2023/03/06 12:20:41;;;;;;;12.98;8.85;;;;;;;6.34;61.38;99346.22;5014210;28;20050;-91
2023/03/06 12:23:56;;;;;;;15.90;9.30;;;;;;;6.14;62.48;99338.44;5008256;28;20047;-92
2023/03/06 12:27:00;;;;;;;13.50;8.95;;;;;;;6.05;61.94;99333.56;5003363;28;20419;-93
2023/03/06 12:30:30;;;;;;;18.35;9.60;;;;;;;6.05;63.31;99333.56;5012141;28;20053;-95
2023/03/06 12:34:01;;;;;;;13.43;8.48;;;;;;;6.27;63.13;99332.53;5014495;28;20054;-93
2023/03/06 12:37:15;;;;;;;13.85;8.95;;;;;;;6.43;60.65;99306.38;5210460;23;20062;-93
2023/03/06 12:40:40;;;;;;;13.27;8.00;;;;;;;6.69;58.68;99339.31;4969327;28;20039;-94
2023/03/06 12:44:18;;;;;;;15.40;8.88;;;;;;;6.00;58.73;99244.41;4985095;28;20085;-92
2023/03/06 12:47:20;;;;;;;12.82;8.30;;;;;;;6.32;58.27;99316.50;4973214;28;20061;-96
2023/03/06 12:50:57;;;;;;;;;;;;;;;;;;;;;
2023/03/06 12:53:50;;;;;;;13.77;8.02;;;;;;;6.17;59.17;99286.53;4991923;28;20054;-94
2023/03/06 12:59:48;;;;;;;13.77;8.60;;;;;;;7.26;57.72;99317.16;5839232;23;20041;-94
2023/03/06 13:03:43;;;;;;;;;;;;;;;;;;;;;
2023/03/06 13:07:26;;;;;;;12.65;9.07;;;;;;;7.74;56.27;99316.41;5026899;28;20061;-93
2023/03/06 13:10:40;;;;;;;12.52;8.75;;;;;;;7.64;56.10;99296.75;5012316;28;20038;-93
2023/03/06 13:13:45;;;;;;;12.80;8.75;;;;;;;7.54;56.88;99311.34;5008927;28;20049;-94
2023/03/06 13:16:42;;;;;;;11.82;8.00;;;;;;;7.35;57.07;99285.09;5018316;28;20129;-95
2023/03/06 13:25:36;;;;;;;14.68;8.77;;;;;;;7.48;58.00;99269.50;5842682;23;20065;-93
2023/03/06 13:28:43;;;;;;;13.90;8.90;;;;;;;8.19;55.29;99295.56;4988297;28;21909;-95
2023/03/06 13:31:46;;;;;;;15.95;8.57;;;;;;;8.03;55.56;99298.19;4987316;28;20074;-92
2023/03/06 13:35:30;;;;;;;14.20;8.82;;;;;;;6.92;55.61;99189.06;4931958;29;20084;-92
2023/03/06 13:38:36;;;;;;;13.18;8.73;;;;;;;7.46;56.68;99297.72;4900365;28;20074;-95
2023/03/06 13:41:53;;;;;;;14.23;9.10;;;;;;;7.21;57.23;99290.22;4991682;28;20049;-93
2023/03/06 13:44:49;;;;;;;15.27;8.95;;;;;;;6.82;58.73;99298.31;4977584;28;20054;-93
2023/03/06 13:51:29;;;;;;;15.82;9.65;;;;;;;5.86;66.56;99252.06;4930990;28;20042;-93
2023/03/06 13:55:11;;;;;;;19.42;10.45;;;;;;;5.50;73.22;99268.56;4967211;28;20050;-94
2023/03/06 13:58:26;;;;;;;17.13;10.32;;;;;;;5.27;80.79;99294.97;4923787;29;20048;-91
2023/03/06 14:02:01;;;;;;;16.80;9.55;;;;;;;4.44;90.30;99189.19;4913540;28;20184;-93
2023/03/06 14:05:00;;;;;;;16.98;10.60;;;;;;;4.44;90.67;99192.66;4964431;28;20043;-91
2023/03/06 14:08:12;;;;;;;16.75;9.15;;;;;;;5.05;89.27;99287.13;4969265;28;20530;-92
2023/03/06 14:11:34;;;;;;;17.73;10.00;;;;;;;4.94;92.95;99235.13;4986274;28;20047;-92
2023/03/06 14:15:10;;;;;;;12.90;8.40;;;;;;;5.40;91.48;99272.50;4974412;28;20035;-91
2023/03/06 14:18:31;;;;;;;17.00;10.77;;;;;;;5.69;89.40;99265.09;4984960;28;20044;-92
2023/03/06 14:22:05;;;;;;;16.83;9.10;;;;;;;5.83;86.38;99260.94;4975558;28;20122;-92
2023/03/06 14:25:25;;;;;;;16.10;9.20;;;;;;;6.09;84.18;99264.19;4969470;28;20075;-92
2023/03/06 14:27:55;;;;;;;16.50;9.35;;;;;;;6.15;82.52;99243.69;4981257;28;20145;-94
2023/03/06 14:31:13;;;;;;;14.07;8.88;;;;;;;6.22;80.98;99228.50;5001653;28;20157;-93
2023/03/06 14:34:17;;;;;;;13.60;8.73;;;;;;;6.20;79.23;99204.06;4993540;28;20078;-93
2023/03/06 14:38:02;;;;;;;13.85;8.52;;;;;;;6.65;76.47;99251.78;4988328;28;20054;-95
2023/03/06 14:41:09;;;;;;;13.50;8.77;;;;;;;6.64;75.55;99233.44;4977347;28;20042;-93
2023/03/06 14:44:46;;;;;;;18.70;9.35;;;;;;;6.11;75.66;99152.81;4989238;28;20033;-94
2023/03/06 14:47:58;;;;;;;14.65;9.48;;;;;;;6.33;70.21;99218.31;4980580;28;20046;-94
2023/03/06 15:24:56;;;;;;;19.30;10.65;;;;;;;5.98;59.78;99185.84;4936936;28;20055;-94
2023/03/06 15:28:37;;;;;;;20.98;10.52;;;;;;;6.06;59.33;99190.72;4936995;28;20088;-92
2023/03/06 15:31:44;;;;;;;17.52;10.25;;;;;;;6.32;59.39;99238.50;4932232;29;20054;-96
2023/03/06 15:34:31;;;;;;;18.02;9.20;;;;;;;6.33;59.81;99242.81;4906120;29;20123;-92
2023/03/06 15:37:48;;;;;;;;;;;;;;;;;;;;;
2023/03/06 15:41:16;;;;;;;;;;;;;;;;;;;;;
2023/03/06 15:44:45;;;;;;;18.15;10.68;;;;;;;5.91;60.21;99190.53;4934421;29;20036;-93
2023/03/06 15:47:37;;;;;;;18.73;11.05;;;;;;;6.25;60.70;99239.72;4929960;29;20063;-94
2023/03/06 15:50:18;;;;;;;18.48;10.32;;;;;;;6.24;60.30;99258.19;4915852;29;20068;-92
2023/03/06 15:52:59;;;;;;;19.15;10.57;;;;;;;5.93;60.36;99179.97;4915569;29;20063;-92
2023/03/06 15:55:32;;;;;;;16.98;11.05;;;;;;;6.30;60.66;99239.47;4918353;29;20044;-91
2023/03/06 15:58:25;;;;;;;16.60;9.48;;;;;;;5.88;61.49;99179.28;4933048;29;20114;-94
2023/03/06 16:01:34;;;;;;;19.42;10.30;;;;;;;5.68;62.08;99137.31;4935161;28;20032;-94
2023/03/06 16:04:32;;;;;;;17.35;10.52;;;;;;;6.20;62.92;99232.97;4917675;29;20050;-95
2023/03/06 17:30:08;;;;;;;13.32;8.27;;;;;;;5.02;67.36;99161.34;5682176;23;20037;-93
2023/03/06 17:33:22;;;;;;;13.82;8.18;;;;;;;5.03;68.67;99209.44;5032625;28;20129;-93
2023/03/06 21:21:19;;;;;;;26.65;14.88;;;;;;;3.23;92.05;99231.41;5517263;23;20010;-94